createdAt,value
2022-10-30T00:00:29.498Z,94.80
2022-10-30T00:02:56.498Z,96.38
2022-10-30T00:05:24.140Z,98.53
2022-10-30T00:07:50.899Z,105.55
2022-10-30T00:10:18.621Z,95.70
2022-10-30T00:12:45.240Z,99.70
2022-10-30T00:15:11.951Z,80.63
2022-10-30T00:17:38.667Z,77.60
2022-10-30T00:20:06.414Z,75.97
2022-10-30T00:22:33.293Z,76.93
2022-10-30T00:24:59.866Z,71.88
2022-10-30T00:27:27.356Z,79.82
2022-10-30T00:29:53.944Z,72.65
2022-10-30T00:32:20.618Z,86.05
2022-10-30T00:34:47.162Z,76.97
2022-10-30T00:37:13.766Z,72.13
2022-10-30T00:39:40.419Z,67.38
2022-10-30T00:42:13.994Z,65.20
2022-10-30T00:44:52.748Z,69.55
2022-10-30T00:47:36.109Z,61.10
2022-10-30T00:50:02.714Z,58.33
2022-10-30T00:52:34.124Z,55.10
2022-10-30T00:55:07.884Z,55.33
2022-10-30T00:57:37.550Z,55.15
2022-10-30T01:00:06.589Z,56.30
2022-10-30T01:02:33.627Z,54.58
2022-10-30T01:05:01.695Z,43.80
2022-10-30T01:07:28.466Z,63.95
2022-10-30T01:09:55.133Z,68.40
2022-10-30T01:12:21.859Z,72.90
2022-10-30T01:14:55.376Z,66.00
2022-10-30T01:18:02.907Z,61.35
2022-10-30T01:20:55.896Z,72.53
2022-10-30T01:23:34.765Z,63.72
2022-10-30T01:26:19.378Z,69.50
2022-10-30T01:28:51.877Z,61.10
2022-10-30T01:31:27.253Z,48.30
2022-10-30T01:34:32.053Z,57.63
2022-10-30T01:37:05.356Z,60.85
2022-10-30T01:39:35.992Z,51.95
2022-10-30T01:42:40.271Z,61.53
2022-10-30T01:45:07.861Z,44.90
2022-10-30T01:47:37.281Z,47.35
2022-10-30T01:50:06.912Z,51.83
2022-10-30T01:52:58.697Z,60.55
2022-10-30T01:55:42.624Z,59.13
2022-10-30T01:58:34.997Z,61.38
2022-10-30T02:01:02.234Z,55.92
2022-10-30T02:03:29.152Z,58.35
2022-10-30T02:05:55.785Z,58.40
2022-10-30T02:08:22.974Z,62.60
2022-10-30T02:10:52.513Z,53.22
2022-10-30T02:13:20.267Z,61.45
2022-10-30T02:15:47.667Z,60.45
2022-10-30T02:18:14.568Z,63.03
2022-10-30T02:20:41.299Z,53.17
2022-10-30T02:23:09.243Z,54.17
2022-10-30T02:25:35.991Z,52.70
2022-10-30T02:28:02.618Z,51.70
2022-10-30T02:30:29.281Z,51.15
2022-10-30T02:32:56.308Z,54.58
2022-10-30T02:35:23.130Z,51.05
2022-10-30T02:37:49.799Z,49.78
2022-10-30T02:40:16.460Z,41.92
2022-10-30T02:42:43.072Z,49.65
2022-10-30T02:45:10.183Z,50.45
2022-10-30T02:47:36.778Z,50.20
2022-10-30T02:50:03.654Z,50.50
2022-10-30T02:52:30.353Z,46.15
2022-10-30T02:54:56.963Z,44.25
2022-10-30T02:57:23.540Z,56.78
2022-10-30T02:59:50.135Z,48.65
2022-10-30T03:02:16.791Z,48.63
2022-10-30T03:04:43.516Z,53.25
2022-10-30T03:07:10.076Z,48.15
2022-10-30T03:09:36.693Z,53.55
2022-10-30T03:12:03.324Z,47.33
2022-10-30T03:14:29.934Z,49.45
2022-10-30T03:16:56.729Z,50.20
2022-10-30T03:19:23.359Z,45.88
2022-10-30T03:21:50.134Z,44.70
2022-10-30T03:24:16.769Z,46.50
2022-10-30T03:26:43.314Z,43.50
2022-10-30T03:29:09.914Z,41.75
2022-10-30T03:31:36.549Z,44.63
2022-10-30T03:34:03.153Z,37.20
2022-10-30T03:36:29.756Z,44.53
2022-10-30T03:38:56.712Z,40.90
2022-10-30T03:41:23.349Z,41.58
2022-10-30T03:43:50.627Z,36.95
2022-10-30T03:46:17.476Z,41.75
2022-10-30T03:48:44.141Z,40.58
2022-10-30T03:51:10.850Z,44.38
2022-10-30T03:53:37.459Z,44.92
2022-10-30T03:56:05.042Z,46.78
2022-10-30T03:58:31.811Z,57.33
2022-10-30T04:01:03.402Z,58.45
2022-10-30T04:03:30.411Z,47.38
2022-10-30T04:05:57.216Z,56.15
2022-10-30T04:08:24.429Z,51.67
2022-10-30T04:10:51.171Z,47.25
2022-10-30T04:13:18.901Z,57.50
2022-10-30T04:15:55.776Z,56.55
2022-10-30T04:18:25.760Z,56.42
2022-10-30T04:20:52.576Z,58.05
2022-10-30T04:23:21.038Z,57.22
2022-10-30T04:25:48.321Z,59.60
2022-10-30T04:28:15.168Z,60.97
2022-10-30T04:30:41.910Z,59.72
2022-10-30T04:33:12.471Z,61.75
2022-10-30T04:35:39.273Z,53.53
2022-10-30T04:38:11.698Z,49.75
2022-10-30T04:40:40.142Z,51.10
2022-10-30T04:43:07.915Z,51.88
2022-10-30T04:45:35.223Z,58.28
2022-10-30T04:48:07.620Z,55.65
2022-10-30T04:50:34.830Z,51.72
2022-10-30T04:53:07.410Z,48.13
2022-10-30T04:55:34.423Z,54.45
2022-10-30T04:58:03.111Z,60.88
2022-10-30T05:00:31.034Z,55.95
2022-10-30T05:03:01.918Z,60.65
2022-10-30T05:05:31.932Z,62.33
2022-10-30T05:07:58.799Z,57.00
2022-10-30T05:10:25.818Z,50.53
2022-10-30T05:12:54.380Z,53.40
2022-10-30T05:15:21.576Z,59.15
2022-10-30T05:17:53.160Z,54.67
2022-10-30T05:20:20.255Z,53.92
2022-10-30T05:22:47.177Z,55.92
2022-10-30T05:25:13.852Z,50.35
2022-10-30T05:27:40.441Z,54.63
2022-10-30T05:30:07.678Z,49.40
2022-10-30T05:32:34.283Z,44.28
2022-10-30T05:35:00.955Z,45.60
2022-10-30T05:37:27.609Z,50.10
2022-10-30T05:39:54.186Z,51.33
2022-10-30T05:42:20.798Z,46.60
2022-10-30T05:45:00.250Z,44.35
2022-10-30T05:47:28.118Z,49.13
2022-10-30T05:49:54.900Z,53.97
2022-10-30T05:52:21.620Z,54.30
2022-10-30T05:54:48.527Z,41.58
2022-10-30T05:57:15.152Z,54.50
2022-10-30T05:59:41.839Z,56.13
2022-10-30T06:02:08.479Z,50.08
2022-10-30T06:04:35.169Z,51.03
2022-10-30T06:07:01.788Z,52.30
2022-10-30T06:09:28.386Z,57.00
2022-10-30T06:11:55.673Z,48.67
2022-10-30T06:14:22.295Z,55.17
2022-10-30T06:16:48.889Z,54.33
2022-10-30T06:19:18.433Z,62.38
2022-10-30T06:21:46.033Z,51.85
2022-10-30T06:24:13.269Z,62.88
2022-10-30T06:26:40.758Z,64.03
2022-10-30T06:29:07.436Z,69.38
2022-10-30T06:31:34.087Z,59.35
2022-10-30T06:34:00.841Z,58.15
2022-10-30T06:36:27.490Z,57.33
2022-10-30T06:38:54.069Z,52.30
2022-10-30T06:41:23.357Z,53.65
2022-10-30T06:43:52.441Z,55.85
2022-10-30T06:46:19.032Z,60.35
2022-10-30T06:48:45.605Z,50.63
2022-10-30T06:51:15.821Z,54.83
2022-10-30T06:53:42.985Z,46.72
2022-10-30T06:56:10.051Z,52.15
2022-10-30T06:58:39.211Z,49.55
2022-10-30T07:01:06.768Z,46.90
2022-10-30T07:03:34.117Z,40.17
2022-10-30T07:06:01.192Z,39.75
2022-10-30T07:08:27.819Z,36.25
2022-10-30T07:10:57.586Z,37.00
2022-10-30T07:13:24.371Z,36.70
2022-10-30T07:15:51.128Z,39.30
2022-10-30T07:18:17.705Z,45.95
2022-10-30T07:20:44.278Z,36.90
2022-10-30T07:23:11.106Z,38.47
2022-10-30T07:25:37.701Z,39.55
2022-10-30T07:28:04.635Z,37.40
2022-10-30T07:30:31.274Z,42.30
2022-10-30T07:33:03.309Z,40.10
2022-10-30T07:35:31.274Z,39.90
2022-10-30T07:38:10.786Z,41.53
2022-10-30T07:40:37.707Z,43.33
2022-10-30T07:43:05.051Z,47.53
2022-10-30T07:45:32.369Z,43.63
2022-10-30T07:47:59.195Z,45.50
2022-10-30T07:50:26.605Z,40.58
2022-10-30T07:52:53.267Z,44.45
2022-10-30T07:55:19.888Z,50.13
2022-10-30T07:57:46.506Z,48.00
2022-10-30T08:00:15.255Z,46.40
2022-10-30T08:02:42.786Z,55.63
2022-10-30T08:05:16.325Z,49.75
2022-10-30T08:07:45.785Z,47.80
2022-10-30T08:10:12.507Z,43.60
2022-10-30T08:12:40.577Z,46.05
2022-10-30T08:15:08.262Z,44.72
2022-10-30T08:17:42.239Z,43.08
2022-10-30T08:20:09.493Z,45.58
2022-10-30T08:22:45.521Z,43.15
2022-10-30T08:25:12.107Z,48.45
2022-10-30T08:27:38.695Z,47.78
2022-10-30T08:30:05.801Z,44.25
2022-10-30T08:32:32.393Z,41.35
2022-10-30T08:34:59.029Z,53.25
2022-10-30T08:37:25.596Z,45.25
2022-10-30T08:39:52.232Z,45.75
2022-10-30T08:42:18.909Z,45.58
2022-10-30T08:44:45.538Z,48.55
2022-10-30T08:47:12.130Z,49.22
2022-10-30T08:49:38.754Z,48.65
2022-10-30T08:52:09.187Z,45.88
2022-10-30T08:54:36.111Z,41.60
2022-10-30T08:57:02.972Z,39.50
2022-10-30T08:59:29.595Z,44.17
2022-10-30T09:01:56.250Z,43.35
2022-10-30T09:04:22.943Z,37.72
2022-10-30T09:06:49.550Z,40.20
2022-10-30T09:09:16.387Z,35.03
2022-10-30T09:11:42.946Z,35.28
2022-10-30T09:14:09.580Z,38.88
2022-10-30T09:16:36.212Z,36.17
2022-10-30T09:19:02.917Z,38.42
2022-10-30T09:21:29.523Z,37.85
2022-10-30T09:23:56.217Z,39.92
2022-10-30T09:26:22.808Z,32.67
2022-10-30T09:28:49.711Z,32.63
2022-10-30T09:31:16.325Z,32.75
2022-10-30T09:33:42.926Z,27.80
2022-10-30T09:36:09.753Z,27.27
2022-10-30T09:38:36.300Z,43.42
2022-10-30T09:41:20.059Z,28.88
2022-10-30T09:44:16.548Z,31.08
2022-10-30T09:47:27.576Z,27.80
2022-10-30T09:50:23.079Z,28.73
2022-10-30T09:53:10.909Z,25.38
2022-10-30T09:55:44.524Z,29.48
2022-10-30T09:59:01.062Z,24.65
2022-10-30T10:01:33.673Z,24.15
2022-10-30T10:04:21.066Z,24.27
2022-10-30T10:06:56.803Z,21.10
2022-10-30T10:09:27.308Z,20.83
2022-10-30T10:11:59.184Z,19.10
2022-10-30T10:14:33.321Z,23.45
2022-10-30T10:17:04.932Z,22.27
2022-10-30T10:22:44.159Z,18.05
2022-10-30T10:25:14.939Z,24.17
2022-10-30T10:27:52.722Z,23.40
2022-10-30T10:30:21.402Z,19.60
2022-10-30T10:32:52.312Z,21.45
2022-10-30T10:35:36.983Z,24.05
2022-10-30T10:38:09.654Z,27.15
2022-10-30T10:40:45.425Z,22.52
2022-10-30T10:43:24.265Z,21.85
2022-10-30T10:46:13.436Z,25.40
2022-10-30T10:48:48.861Z,23.30
2022-10-30T10:51:34.030Z,20.33
2022-10-30T10:54:25.472Z,19.33
2022-10-30T10:56:52.421Z,23.75
2022-10-30T10:59:26.929Z,22.33
2022-10-30T11:02:03.581Z,22.17
2022-10-30T11:04:49.507Z,17.80
2022-10-30T11:07:24.827Z,18.88
2022-10-30T11:09:56.520Z,17.95
2022-10-30T11:12:36.343Z,17.92
2022-10-30T11:15:18.634Z,22.92
2022-10-30T11:17:59.635Z,24.90
2022-10-30T11:20:38.355Z,14.63
2022-10-30T11:23:41.208Z,14.43
2022-10-30T11:26:25.646Z,18.00
2022-10-30T11:28:57.474Z,14.82
2022-10-30T11:31:34.907Z,14.07
2022-10-30T11:34:28.917Z,19.88
2022-10-30T11:36:55.695Z,15.80
2022-10-30T11:39:29.671Z,17.80
2022-10-30T11:42:07.487Z,17.50
2022-10-30T11:44:42.429Z,16.27
2022-10-30T11:47:11.510Z,17.00
2022-10-30T11:49:48.974Z,16.77
2022-10-30T11:52:18.456Z,19.67
2022-10-30T11:54:54.925Z,17.70
2022-10-30T11:57:23.558Z,18.52
2022-10-30T11:59:54.447Z,15.65
2022-10-30T12:02:28.365Z,16.33
2022-10-30T12:05:02.534Z,15.32
2022-10-30T12:07:35.102Z,18.67
2022-10-30T12:10:03.218Z,17.00
2022-10-30T12:12:41.591Z,12.38
2022-10-30T12:15:10.735Z,19.80
2022-10-30T12:17:38.909Z,13.05
2022-10-30T12:20:07.474Z,13.50
2022-10-30T12:22:35.381Z,16.85
2022-10-30T12:25:15.575Z,14.00
2022-10-30T12:27:42.363Z,14.63
2022-10-30T12:30:17.496Z,12.25
2022-10-30T12:32:54.162Z,14.43
2022-10-30T12:35:58.332Z,12.85
2022-10-30T12:38:36.566Z,15.07
2022-10-30T12:41:18.349Z,10.57
2022-10-30T12:43:52.902Z,9.93
2022-10-30T12:46:49.955Z,17.58
2022-10-30T12:49:24.020Z,14.52
2022-10-30T12:52:02.001Z,14.60
2022-10-30T12:54:39.365Z,14.43
2022-10-30T12:57:12.123Z,15.57
2022-10-30T12:59:50.766Z,13.38
2022-10-30T13:02:32.493Z,12.27
2022-10-30T13:05:07.030Z,16.30
2022-10-30T13:08:04.877Z,10.35
2022-10-30T13:10:52.710Z,12.15
2022-10-30T13:13:23.558Z,12.80
2022-10-30T13:15:52.863Z,10.07
2022-10-30T13:18:22.245Z,9.40
2022-10-30T13:21:01.786Z,11.30
2022-10-30T13:23:47.233Z,11.40
2022-10-30T13:26:39.272Z,17.52
2022-10-30T13:29:33.749Z,20.30
2022-10-30T13:32:25.208Z,17.77
2022-10-30T13:35:20.211Z,19.83
2022-10-30T13:38:14.065Z,23.15
2022-10-30T13:40:46.254Z,21.30
2022-10-30T13:43:21.810Z,24.92
2022-10-30T13:46:07.225Z,18.02
2022-10-30T13:48:33.828Z,22.27
2022-10-30T13:51:38.180Z,21.88
2022-10-30T13:54:17.491Z,27.50
2022-10-30T13:56:46.557Z,21.77
2022-10-30T13:59:34.120Z,22.75
2022-10-30T14:02:22.157Z,20.48
2022-10-30T14:05:12.995Z,23.73
2022-10-30T14:07:55.217Z,23.80
2022-10-30T14:10:32.217Z,23.27
2022-10-30T14:15:32.380Z,27.17
2022-10-30T14:18:13.980Z,29.45
2022-10-30T14:23:20.112Z,22.90
2022-10-30T14:26:10.666Z,19.13
2022-10-30T14:28:40.662Z,22.35
2022-10-30T14:31:10.419Z,21.73
2022-10-30T14:33:52.989Z,24.85
2022-10-30T14:36:19.794Z,21.55
2022-10-30T14:38:53.919Z,19.92
2022-10-30T14:41:20.452Z,21.60
2022-10-30T14:44:19.959Z,24.08
2022-10-30T14:46:54.472Z,26.60
2022-10-30T14:49:37.129Z,26.40
2022-10-30T14:52:29.877Z,27.15
2022-10-30T14:55:50.531Z,21.50
2022-10-30T14:58:25.241Z,23.52
2022-10-30T15:01:16.293Z,28.52
2022-10-30T15:04:15.092Z,32.50
2022-10-30T15:06:50.709Z,36.42
2022-10-30T15:09:41.151Z,42.08
2022-10-30T15:15:05.115Z,43.95
2022-10-30T15:17:43.995Z,34.63
2022-10-30T15:20:32.626Z,45.08
2022-10-30T15:23:10.078Z,49.70
2022-10-30T15:25:47.560Z,43.38
2022-10-30T15:28:19.377Z,38.42
2022-10-30T15:31:02.162Z,35.70
2022-10-30T15:33:31.563Z,39.97
2022-10-30T15:35:59.220Z,43.53
2022-10-30T15:38:25.946Z,31.58
2022-10-30T15:40:58.484Z,41.63
2022-10-30T15:43:30.575Z,41.25
2022-10-30T15:45:57.197Z,39.33
2022-10-30T15:48:27.129Z,31.98
2022-10-30T15:51:01.789Z,42.88
2022-10-30T15:53:36.341Z,43.60
2022-10-30T15:56:03.952Z,40.55
2022-10-30T15:58:31.950Z,46.72
2022-10-30T16:01:00.480Z,55.72
2022-10-30T16:03:28.351Z,39.83
2022-10-30T16:06:16.468Z,44.22
2022-10-30T16:08:45.848Z,43.75
2022-10-30T16:11:13.287Z,38.55
2022-10-30T16:13:40.311Z,50.50
2022-10-30T16:18:41.271Z,37.85
2022-10-30T16:21:10.497Z,39.80
2022-10-30T16:23:42.627Z,43.17
2022-10-30T16:26:26.973Z,53.17
2022-10-30T16:28:53.667Z,51.33
2022-10-30T16:31:21.115Z,42.47
2022-10-30T16:33:48.906Z,49.67
2022-10-30T16:36:18.489Z,48.70
2022-10-30T16:38:48.577Z,44.15
2022-10-30T16:41:15.454Z,58.22
2022-10-30T16:43:48.526Z,49.45
2022-10-30T16:46:15.062Z,73.80
2022-10-30T16:48:56.816Z,68.32
2022-10-30T16:51:23.731Z,72.90
2022-10-30T16:53:53.780Z,59.70
2022-10-30T16:56:29.232Z,51.13
2022-10-30T16:59:08.684Z,53.60
2022-10-30T17:01:35.761Z,48.22
2022-10-30T17:04:02.797Z,56.33
2022-10-30T17:06:42.400Z,60.15
2022-10-30T17:09:25.247Z,55.70
2022-10-30T17:12:25.689Z,58.30
2022-10-30T17:15:13.397Z,62.35
2022-10-30T17:17:41.856Z,57.22
2022-10-30T17:20:33.456Z,45.60
2022-10-30T17:23:18.635Z,54.97
2022-10-30T17:25:45.923Z,54.08
2022-10-30T17:28:33.127Z,56.67
2022-10-30T17:31:21.084Z,52.88
2022-10-30T17:34:03.559Z,67.60
2022-10-30T17:36:30.249Z,67.50
2022-10-30T17:38:57.002Z,63.10
2022-10-30T17:41:23.679Z,63.20
2022-10-30T17:44:01.484Z,60.95
2022-10-30T17:46:28.362Z,54.40
2022-10-30T17:48:54.971Z,63.10
2022-10-30T17:51:21.549Z,58.95
2022-10-30T17:53:48.631Z,64.63
2022-10-30T17:56:35.032Z,60.00
2022-10-30T17:59:02.000Z,55.17
2022-10-30T18:01:28.747Z,63.58
2022-10-30T18:03:56.037Z,71.95
2022-10-30T18:06:25.830Z,66.50
2022-10-30T18:08:53.593Z,67.72
2022-10-30T18:11:24.139Z,68.70
2022-10-30T18:13:52.133Z,73.28
2022-10-30T18:16:19.901Z,66.32
2022-10-30T18:18:46.902Z,63.03
2022-10-30T18:21:15.253Z,60.10
2022-10-30T18:23:57.702Z,79.88
2022-10-30T18:26:27.825Z,96.60
2022-10-30T18:28:54.727Z,85.97
2022-10-30T18:31:24.001Z,90.50
2022-10-30T18:33:50.743Z,81.75
2022-10-30T18:36:20.515Z,86.40
2022-10-30T18:38:47.395Z,102.90
2022-10-30T18:41:18.050Z,103.40
2022-10-30T18:43:46.925Z,94.68
2022-10-30T18:46:14.758Z,91.80
2022-10-30T18:48:41.492Z,99.63
2022-10-30T18:51:16.559Z,98.72
2022-10-30T18:53:51.121Z,110.43
2022-10-30T18:56:22.474Z,96.30
2022-10-30T18:58:49.701Z,97.68
2022-10-30T19:01:17.320Z,91.07
2022-10-30T19:03:45.020Z,113.38
2022-10-30T19:06:14.111Z,107.50
2022-10-30T19:08:40.834Z,105.93
2022-10-30T19:11:12.166Z,118.93
2022-10-30T19:13:40.265Z,112.35
2022-10-30T19:16:11.681Z,113.50
2022-10-30T19:18:38.306Z,109.15
2022-10-30T19:21:07.255Z,113.50
2022-10-30T19:23:37.181Z,110.13
2022-10-30T19:26:03.883Z,119.13
2022-10-30T19:28:30.967Z,108.18
2022-10-30T19:30:57.664Z,122.72
2022-10-30T19:33:25.136Z,110.65
2022-10-30T19:36:04.671Z,124.65
2022-10-30T19:38:32.362Z,116.20
2022-10-30T19:40:59.673Z,153.63
2022-10-30T19:43:26.285Z,129.80
2022-10-30T19:45:55.713Z,136.30
2022-10-30T19:48:34.536Z,142.35
2022-10-30T19:51:11.624Z,148.10
2022-10-30T19:53:39.280Z,169.23
2022-10-30T19:56:06.432Z,154.85
2022-10-30T19:58:33.120Z,147.88
2022-10-30T20:00:59.873Z,153.57
2022-10-30T20:03:26.616Z,135.75
2022-10-30T20:05:54.263Z,140.77
2022-10-30T20:08:25.685Z,148.93
2022-10-30T20:11:02.742Z,139.82
2022-10-30T20:13:30.238Z,140.65
2022-10-30T20:15:59.674Z,173.90
2022-10-30T20:18:30.369Z,164.82
2022-10-30T20:21:02.384Z,175.80
2022-10-30T20:23:29.084Z,133.45
2022-10-30T20:26:01.757Z,163.63
2022-10-30T20:28:37.438Z,173.05
2022-10-30T20:31:05.163Z,141.57
2022-10-30T20:33:31.918Z,166.07
2022-10-30T20:35:58.706Z,160.52
2022-10-30T20:38:30.612Z,169.82
2022-10-30T20:40:59.528Z,150.48
2022-10-30T20:43:31.632Z,154.82
2022-10-30T20:45:59.689Z,137.32
2022-10-30T20:48:27.186Z,145.02
2022-10-30T20:50:55.253Z,163.35
2022-10-30T20:53:22.243Z,163.30
2022-10-30T20:55:48.970Z,188.48
2022-10-30T20:58:15.635Z,179.43
2022-10-30T21:00:42.603Z,199.88
2022-10-30T21:03:11.341Z,198.25
2022-10-30T21:05:43.971Z,201.07
2022-10-30T21:08:12.708Z,202.45
2022-10-30T21:10:40.322Z,213.13
2022-10-30T21:13:09.983Z,223.93
2022-10-30T21:15:41.826Z,220.60
2022-10-30T21:18:09.645Z,220.52
2022-10-30T21:20:37.532Z,227.70
2022-10-30T21:23:04.586Z,221.23
2022-10-30T21:25:32.477Z,252.45
2022-10-30T21:27:59.817Z,246.98
2022-10-30T21:30:26.751Z,235.23
2022-10-30T21:32:53.376Z,255.82
2022-10-30T21:35:20.423Z,238.07
2022-10-30T21:37:47.380Z,211.25
2022-10-30T21:40:14.027Z,231.65
2022-10-30T21:42:41.262Z,229.88
2022-10-30T21:45:08.725Z,222.75
2022-10-30T21:47:35.649Z,202.23
2022-10-30T21:50:06.167Z,220.68
2022-10-30T21:52:34.876Z,196.48
2022-10-30T21:55:01.467Z,194.82
2022-10-30T21:57:29.177Z,188.90
2022-10-30T21:59:58.719Z,196.15
2022-10-30T22:02:28.465Z,195.13
2022-10-30T22:04:55.194Z,191.30
2022-10-30T22:07:21.883Z,181.88
2022-10-30T22:09:48.567Z,191.30
2022-10-30T22:12:15.162Z,195.18
2022-10-30T22:14:41.842Z,191.40
2022-10-30T22:17:08.784Z,203.70
2022-10-30T22:19:35.321Z,173.10
2022-10-30T22:22:01.938Z,185.63
2022-10-30T22:24:28.536Z,185.95
2022-10-30T22:26:55.160Z,215.23
2022-10-30T22:29:21.723Z,161.70
2022-10-30T22:31:49.628Z,138.38
2022-10-30T22:34:16.234Z,161.70
2022-10-30T22:36:42.971Z,178.25
2022-10-30T22:39:13.761Z,164.73
2022-10-30T22:41:40.965Z,150.90
2022-10-30T22:44:11.912Z,190.90
2022-10-30T22:46:38.823Z,173.80
2022-10-30T22:49:06.654Z,200.07
2022-10-30T22:51:37.731Z,158.52
2022-10-30T22:54:07.131Z,150.57
2022-10-30T22:56:36.008Z,145.93
2022-10-30T22:59:06.024Z,150.13
2022-10-30T23:01:35.974Z,142.23
2022-10-30T23:04:05.020Z,139.45
2022-10-30T23:06:33.700Z,150.90
2022-10-30T23:09:02.823Z,136.98
2022-10-30T23:11:29.945Z,174.20
2022-10-30T23:13:57.207Z,130.80
2022-10-30T23:16:25.847Z,165.50
2022-10-30T23:18:55.962Z,138.93
2022-10-30T23:21:24.233Z,139.18
2022-10-30T23:23:51.171Z,123.05
2022-10-30T23:26:20.996Z,135.25
2022-10-30T23:28:49.912Z,144.48
2022-10-30T23:31:23.717Z,144.98
2022-10-30T23:33:51.898Z,146.50
2022-10-30T23:36:19.070Z,173.43
2022-10-30T23:38:54.274Z,138.85
2022-10-30T23:41:22.144Z,156.90
2022-10-30T23:43:52.649Z,141.32
2022-10-30T23:46:19.220Z,174.75
2022-10-30T23:48:45.769Z,135.55
2022-10-30T23:51:12.378Z,173.43
2022-10-30T23:53:39.035Z,196.98
2022-10-30T23:56:06.254Z,173.35
2022-10-30T23:58:32.955Z,143.75
